sensor_id;sensor_type;location;lat;lon;timestamp;temperature;humidity
5508;DHT22;2776;51.046;6.772;2023-03-14T00:00:20;10.60;99.90
5508;DHT22;2776;51.046;6.772;2023-03-14T00:02:51;10.70;99.90
5508;DHT22;2776;51.046;6.772;2023-03-14T00:05:18;10.80;99.90
5508;DHT22;2776;51.046;6.772;2023-03-14T00:07:45;10.80;99.90
5508;DHT22;2776;51.046;6.772;2023-03-14T00:10:14;10.80;99.90
5508;DHT22;2776;51.046;6.772;2023-03-14T00:12:42;10.80;99.90
5508;DHT22;2776;51.046;6.772;2023-03-14T00:15:09;10.80;99.90
5508;DHT22;2776;51.046;6.772;2023-03-14T00:17:37;10.80;99.90
5508;DHT22;2776;51.046;6.772;2023-03-14T00:20:05;10.80;99.90
5508;DHT22;2776;51.046;6.772;2023-03-14T00:22:35;10.80;99.90
5508;DHT22;2776;51.046;6.772;2023-03-14T00:25:02;10.80;99.90
5508;DHT22;2776;51.046;6.772;2023-03-14T00:27:29;10.80;99.90
5508;DHT22;2776;51.046;6.772;2023-03-14T00:29:57;10.90;99.90
5508;DHT22;2776;51.046;6.772;2023-03-14T00:32:24;11.00;99.90
5508;DHT22;2776;51.046;6.772;2023-03-14T00:34:51;11.10;99.90
5508;DHT22;2776;51.046;6.772;2023-03-14T00:37:18;11.30;99.90
5508;DHT22;2776;51.046;6.772;2023-03-14T00:39:45;11.40;99.90
5508;DHT22;2776;51.046;6.772;2023-03-14T00:42:12;11.40;99.90
5508;DHT22;2776;51.046;6.772;2023-03-14T00:44:38;11.50;99.90
5508;DHT22;2776;51.046;6.772;2023-03-14T00:47:06;11.40;99.90
5508;DHT22;2776;51.046;6.772;2023-03-14T00:49:33;11.00;99.90
5508;DHT22;2776;51.046;6.772;2023-03-14T00:52:00;10.30;99.90
5508;DHT22;2776;51.046;6.772;2023-03-14T00:54:27;9.90;99.90
5508;DHT22;2776;51.046;6.772;2023-03-14T00:56:53;9.60;99.90
5508;DHT22;2776;51.046;6.772;2023-03-14T00:59:20;9.50;99.90
5508;DHT22;2776;51.046;6.772;2023-03-14T01:01:47;9.40;99.90
5508;DHT22;2776;51.046;6.772;2023-03-14T01:04:15;9.40;99.90
5508;DHT22;2776;51.046;6.772;2023-03-14T01:06:42;9.30;99.90
5508;DHT22;2776;51.046;6.772;2023-03-14T01:09:08;9.20;99.90
5508;DHT22;2776;51.046;6.772;2023-03-14T01:11:36;9.30;99.90
5508;DHT22;2776;51.046;6.772;2023-03-14T01:14:03;9.40;99.90
5508;DHT22;2776;51.046;6.772;2023-03-14T01:16:32;9.40;99.90
5508;DHT22;2776;51.046;6.772;2023-03-14T01:18:59;9.50;99.90
5508;DHT22;2776;51.046;6.772;2023-03-14T01:21:29;9.60;99.90
5508;DHT22;2776;51.046;6.772;2023-03-14T01:23:57;9.60;99.90
5508;DHT22;2776;51.046;6.772;2023-03-14T01:26:26;9.70;99.90
5508;DHT22;2776;51.046;6.772;2023-03-14T01:28:54;9.70;99.90
5508;DHT22;2776;51.046;6.772;2023-03-14T01:31:22;9.70;99.90
5508;DHT22;2776;51.046;6.772;2023-03-14T01:33:49;9.70;99.90
5508;DHT22;2776;51.046;6.772;2023-03-14T01:36:16;9.70;99.90
5508;DHT22;2776;51.046;6.772;2023-03-14T01:38:44;9.70;99.90
5508;DHT22;2776;51.046;6.772;2023-03-14T01:41:13;9.60;99.90
5508;DHT22;2776;51.046;6.772;2023-03-14T01:43:40;9.60;99.90
5508;DHT22;2776;51.046;6.772;2023-03-14T01:46:28;9.60;99.90
5508;DHT22;2776;51.046;6.772;2023-03-14T01:48:59;9.60;99.90
5508;DHT22;2776;51.046;6.772;2023-03-14T01:51:32;9.50;99.90
5508;DHT22;2776;51.046;6.772;2023-03-14T01:54:06;9.50;99.90
5508;DHT22;2776;51.046;6.772;2023-03-14T01:56:36;9.50;99.90
5508;DHT22;2776;51.046;6.772;2023-03-14T01:59:05;9.50;99.90
5508;DHT22;2776;51.046;6.772;2023-03-14T02:01:32;9.40;99.90
5508;DHT22;2776;51.046;6.772;2023-03-14T02:04:02;9.40;99.90
5508;DHT22;2776;51.046;6.772;2023-03-14T02:06:36;9.50;99.90
5508;DHT22;2776;51.046;6.772;2023-03-14T02:09:05;9.50;99.90
5508;DHT22;2776;51.046;6.772;2023-03-14T02:11:32;9.50;99.90
5508;DHT22;2776;51.046;6.772;2023-03-14T02:13:59;9.60;99.90
5508;DHT22;2776;51.046;6.772;2023-03-14T02:16:27;9.50;99.90
5508;DHT22;2776;51.046;6.772;2023-03-14T02:18:54;9.60;99.90
5508;DHT22;2776;51.046;6.772;2023-03-14T02:21:23;9.60;99.90
5508;DHT22;2776;51.046;6.772;2023-03-14T02:23:59;9.70;99.90
5508;DHT22;2776;51.046;6.772;2023-03-14T02:26:36;9.70;99.90
5508;DHT22;2776;51.046;6.772;2023-03-14T02:29:06;9.70;99.90
5508;DHT22;2776;51.046;6.772;2023-03-14T02:31:33;9.60;99.90
5508;DHT22;2776;51.046;6.772;2023-03-14T02:34:00;9.60;99.90
5508;DHT22;2776;51.046;6.772;2023-03-14T02:36:27;9.70;99.90
5508;DHT22;2776;51.046;6.772;2023-03-14T02:39:07;9.70;99.90
5508;DHT22;2776;51.046;6.772;2023-03-14T02:41:34;9.80;99.90
5508;DHT22;2776;51.046;6.772;2023-03-14T02:44:01;9.80;99.90
5508;DHT22;2776;51.046;6.772;2023-03-14T02:46:29;9.80;99.90
5508;DHT22;2776;51.046;6.772;2023-03-14T02:48:59;9.80;99.90
5508;DHT22;2776;51.046;6.772;2023-03-14T02:51:28;9.80;99.90
5508;DHT22;2776;51.046;6.772;2023-03-14T02:53:55;9.80;99.90
5508;DHT22;2776;51.046;6.772;2023-03-14T02:56:22;9.80;99.90
5508;DHT22;2776;51.046;6.772;2023-03-14T02:58:49;9.80;99.90
5508;DHT22;2776;51.046;6.772;2023-03-14T03:01:16;9.70;99.90
5508;DHT22;2776;51.046;6.772;2023-03-14T03:03:44;9.80;99.90
5508;DHT22;2776;51.046;6.772;2023-03-14T03:06:11;9.80;99.90
5508;DHT22;2776;51.046;6.772;2023-03-14T03:08:37;9.90;99.90
5508;DHT22;2776;51.046;6.772;2023-03-14T03:11:05;9.90;99.90
5508;DHT22;2776;51.046;6.772;2023-03-14T03:13:32;9.90;99.90
5508;DHT22;2776;51.046;6.772;2023-03-14T03:15:59;9.90;99.90
5508;DHT22;2776;51.046;6.772;2023-03-14T03:18:25;9.90;99.90
5508;DHT22;2776;51.046;6.772;2023-03-14T03:20:53;10.00;99.90
5508;DHT22;2776;51.046;6.772;2023-03-14T03:23:20;10.00;99.90
5508;DHT22;2776;51.046;6.772;2023-03-14T03:25:50;10.00;99.90
5508;DHT22;2776;51.046;6.772;2023-03-14T03:28:17;10.00;99.90
5508;DHT22;2776;51.046;6.772;2023-03-14T03:30:44;10.00;99.90
5508;DHT22;2776;51.046;6.772;2023-03-14T03:33:11;10.10;99.90
5508;DHT22;2776;51.046;6.772;2023-03-14T03:35:45;10.10;99.90
5508;DHT22;2776;51.046;6.772;2023-03-14T03:38:14;10.20;99.90
5508;DHT22;2776;51.046;6.772;2023-03-14T03:40:41;10.20;99.90
5508;DHT22;2776;51.046;6.772;2023-03-14T03:43:08;10.10;99.90
5508;DHT22;2776;51.046;6.772;2023-03-14T03:45:34;10.10;99.90
5508;DHT22;2776;51.046;6.772;2023-03-14T03:48:01;10.10;99.90
5508;DHT22;2776;51.046;6.772;2023-03-14T03:50:28;10.10;99.90
5508;DHT22;2776;51.046;6.772;2023-03-14T03:52:54;10.10;99.90
5508;DHT22;2776;51.046;6.772;2023-03-14T03:55:22;10.20;99.90
5508;DHT22;2776;51.046;6.772;2023-03-14T03:57:50;10.30;99.90
5508;DHT22;2776;51.046;6.772;2023-03-14T04:00:17;10.30;99.90
5508;DHT22;2776;51.046;6.772;2023-03-14T04:02:44;10.10;99.90
5508;DHT22;2776;51.046;6.772;2023-03-14T04:05:11;10.10;99.90
5508;DHT22;2776;51.046;6.772;2023-03-14T04:07:37;10.10;99.90
5508;DHT22;2776;51.046;6.772;2023-03-14T04:10:05;10.00;99.90
5508;DHT22;2776;51.046;6.772;2023-03-14T04:12:33;9.90;99.90
5508;DHT22;2776;51.046;6.772;2023-03-14T04:14:59;9.90;99.90
5508;DHT22;2776;51.046;6.772;2023-03-14T04:17:26;10.00;99.90
5508;DHT22;2776;51.046;6.772;2023-03-14T04:19:53;10.00;99.90
5508;DHT22;2776;51.046;6.772;2023-03-14T04:22:19;10.00;99.90
5508;DHT22;2776;51.046;6.772;2023-03-14T04:24:46;10.00;99.90
5508;DHT22;2776;51.046;6.772;2023-03-14T04:27:13;9.90;99.90
5508;DHT22;2776;51.046;6.772;2023-03-14T04:29:42;10.00;99.90
5508;DHT22;2776;51.046;6.772;2023-03-14T04:32:08;10.00;99.90
5508;DHT22;2776;51.046;6.772;2023-03-14T04:34:35;10.00;99.90
5508;DHT22;2776;51.046;6.772;2023-03-14T04:37:02;10.00;99.90
5508;DHT22;2776;51.046;6.772;2023-03-14T04:39:29;10.10;99.90
5508;DHT22;2776;51.046;6.772;2023-03-14T04:41:56;10.10;99.90
5508;DHT22;2776;51.046;6.772;2023-03-14T04:44:22;10.10;99.90
5508;DHT22;2776;51.046;6.772;2023-03-14T04:46:50;10.10;99.90
5508;DHT22;2776;51.046;6.772;2023-03-14T04:49:17;10.10;99.90
5508;DHT22;2776;51.046;6.772;2023-03-14T04:51:44;10.10;99.90
5508;DHT22;2776;51.046;6.772;2023-03-14T04:54:11;10.10;99.90
5508;DHT22;2776;51.046;6.772;2023-03-14T04:56:37;10.10;99.90
5508;DHT22;2776;51.046;6.772;2023-03-14T04:59:04;10.10;99.90
5508;DHT22;2776;51.046;6.772;2023-03-14T05:01:31;10.10;99.90
5508;DHT22;2776;51.046;6.772;2023-03-14T05:03:59;10.10;99.90
5508;DHT22;2776;51.046;6.772;2023-03-14T05:06:26;10.00;99.90
5508;DHT22;2776;51.046;6.772;2023-03-14T05:08:53;10.10;99.90
5508;DHT22;2776;51.046;6.772;2023-03-14T05:11:19;10.10;99.90
5508;DHT22;2776;51.046;6.772;2023-03-14T05:13:46;10.10;99.90
5508;DHT22;2776;51.046;6.772;2023-03-14T05:16:13;10.10;99.90
5508;DHT22;2776;51.046;6.772;2023-03-14T05:18:39;10.10;99.90
5508;DHT22;2776;51.046;6.772;2023-03-14T05:21:08;10.10;99.90
5508;DHT22;2776;51.046;6.772;2023-03-14T05:23:34;10.10;99.90
5508;DHT22;2776;51.046;6.772;2023-03-14T05:26:01;10.10;99.90
5508;DHT22;2776;51.046;6.772;2023-03-14T05:28:28;10.10;99.90
5508;DHT22;2776;51.046;6.772;2023-03-14T05:30:54;10.20;99.90
5508;DHT22;2776;51.046;6.772;2023-03-14T05:33:21;10.20;99.90
5508;DHT22;2776;51.046;6.772;2023-03-14T05:35:48;10.20;99.90
5508;DHT22;2776;51.046;6.772;2023-03-14T05:38:16;10.20;99.90
5508;DHT22;2776;51.046;6.772;2023-03-14T05:40:44;10.10;99.90
5508;DHT22;2776;51.046;6.772;2023-03-14T05:43:11;10.20;99.90
5508;DHT22;2776;51.046;6.772;2023-03-14T05:45:38;10.20;99.90
5508;DHT22;2776;51.046;6.772;2023-03-14T05:48:05;10.20;99.90
5508;DHT22;2776;51.046;6.772;2023-03-14T05:50:32;10.20;99.90
5508;DHT22;2776;51.046;6.772;2023-03-14T05:52:59;10.20;99.90
5508;DHT22;2776;51.046;6.772;2023-03-14T05:55:27;10.20;99.90
5508;DHT22;2776;51.046;6.772;2023-03-14T05:57:54;10.20;99.90
5508;DHT22;2776;51.046;6.772;2023-03-14T06:00:22;10.10;99.90
5508;DHT22;2776;51.046;6.772;2023-03-14T06:02:49;10.10;99.90
5508;DHT22;2776;51.046;6.772;2023-03-14T06:05:16;10.10;99.90
5508;DHT22;2776;51.046;6.772;2023-03-14T06:07:42;10.00;99.90
5508;DHT22;2776;51.046;6.772;2023-03-14T06:10:10;10.00;99.90
5508;DHT22;2776;51.046;6.772;2023-03-14T06:12:38;10.00;99.90
5508;DHT22;2776;51.046;6.772;2023-03-14T06:15:06;10.00;99.90
5508;DHT22;2776;51.046;6.772;2023-03-14T06:17:33;10.00;99.90
5508;DHT22;2776;51.046;6.772;2023-03-14T06:19:59;10.00;99.90
5508;DHT22;2776;51.046;6.772;2023-03-14T06:22:26;10.10;99.90
5508;DHT22;2776;51.046;6.772;2023-03-14T06:24:53;10.10;99.90
5508;DHT22;2776;51.046;6.772;2023-03-14T06:27:19;10.10;99.90
5508;DHT22;2776;51.046;6.772;2023-03-14T06:29:47;10.10;99.90
5508;DHT22;2776;51.046;6.772;2023-03-14T06:32:14;10.10;99.90
5508;DHT22;2776;51.046;6.772;2023-03-14T06:34:41;10.20;99.90
5508;DHT22;2776;51.046;6.772;2023-03-14T06:37:08;10.30;99.90
5508;DHT22;2776;51.046;6.772;2023-03-14T06:39:34;10.30;99.90
5508;DHT22;2776;51.046;6.772;2023-03-14T06:42:01;10.30;99.90
5508;DHT22;2776;51.046;6.772;2023-03-14T06:44:28;10.40;99.90
5508;DHT22;2776;51.046;6.772;2023-03-14T06:46:56;10.40;99.90
5508;DHT22;2776;51.046;6.772;2023-03-14T06:49:23;10.50;99.90
5508;DHT22;2776;51.046;6.772;2023-03-14T06:51:49;10.50;99.90
5508;DHT22;2776;51.046;6.772;2023-03-14T06:54:16;10.60;99.90
5508;DHT22;2776;51.046;6.772;2023-03-14T06:56:43;10.60;99.90
5508;DHT22;2776;51.046;6.772;2023-03-14T06:59:10;10.60;99.90
5508;DHT22;2776;51.046;6.772;2023-03-14T07:01:36;10.60;99.90
5508;DHT22;2776;51.046;6.772;2023-03-14T07:04:05;10.60;99.90
5508;DHT22;2776;51.046;6.772;2023-03-14T07:06:33;10.60;99.90
5508;DHT22;2776;51.046;6.772;2023-03-14T07:09:00;10.60;99.90
5508;DHT22;2776;51.046;6.772;2023-03-14T07:11:27;10.60;99.90
5508;DHT22;2776;51.046;6.772;2023-03-14T07:13:53;10.60;99.90
5508;DHT22;2776;51.046;6.772;2023-03-14T07:16:20;10.60;99.90
5508;DHT22;2776;51.046;6.772;2023-03-14T07:18:47;10.70;99.90
5508;DHT22;2776;51.046;6.772;2023-03-14T07:21:16;10.70;99.90
5508;DHT22;2776;51.046;6.772;2023-03-14T07:23:42;10.70;99.90
5508;DHT22;2776;51.046;6.772;2023-03-14T07:26:09;10.80;99.90
5508;DHT22;2776;51.046;6.772;2023-03-14T07:28:36;10.80;99.90
5508;DHT22;2776;51.046;6.772;2023-03-14T07:31:03;10.90;99.90
5508;DHT22;2776;51.046;6.772;2023-03-14T07:33:30;10.90;99.90
5508;DHT22;2776;51.046;6.772;2023-03-14T07:35:57;10.90;99.90
5508;DHT22;2776;51.046;6.772;2023-03-14T07:38:25;10.90;99.90
5508;DHT22;2776;51.046;6.772;2023-03-14T07:40:58;10.90;99.90
5508;DHT22;2776;51.046;6.772;2023-03-14T07:43:25;10.90;99.90
5508;DHT22;2776;51.046;6.772;2023-03-14T07:45:52;10.90;99.90
5508;DHT22;2776;51.046;6.772;2023-03-14T07:48:19;11.00;99.90
5508;DHT22;2776;51.046;6.772;2023-03-14T07:50:48;11.00;99.90
5508;DHT22;2776;51.046;6.772;2023-03-14T07:53:15;11.00;99.90
5508;DHT22;2776;51.046;6.772;2023-03-14T07:55:43;10.90;99.90
5508;DHT22;2776;51.046;6.772;2023-03-14T07:58:11;10.90;99.90
5508;DHT22;2776;51.046;6.772;2023-03-14T08:00:38;10.90;99.90
5508;DHT22;2776;51.046;6.772;2023-03-14T08:03:05;10.90;99.90
5508;DHT22;2776;51.046;6.772;2023-03-14T08:05:34;11.00;99.90
5508;DHT22;2776;51.046;6.772;2023-03-14T08:08:01;11.10;99.90
5508;DHT22;2776;51.046;6.772;2023-03-14T08:10:28;11.30;99.90
5508;DHT22;2776;51.046;6.772;2023-03-14T08:12:58;11.40;99.90
5508;DHT22;2776;51.046;6.772;2023-03-14T08:15:26;11.40;99.90
5508;DHT22;2776;51.046;6.772;2023-03-14T08:17:53;11.40;99.90
5508;DHT22;2776;51.046;6.772;2023-03-14T08:20:21;11.30;99.90
5508;DHT22;2776;51.046;6.772;2023-03-14T08:22:48;11.40;99.90
5508;DHT22;2776;51.046;6.772;2023-03-14T08:25:15;11.30;99.90
5508;DHT22;2776;51.046;6.772;2023-03-14T08:27:43;11.30;99.90
5508;DHT22;2776;51.046;6.772;2023-03-14T08:30:14;11.30;99.90
5508;DHT22;2776;51.046;6.772;2023-03-14T08:32:41;11.30;99.90
5508;DHT22;2776;51.046;6.772;2023-03-14T08:35:08;11.40;99.90
5508;DHT22;2776;51.046;6.772;2023-03-14T08:37:36;11.40;99.90
5508;DHT22;2776;51.046;6.772;2023-03-14T08:40:03;11.40;99.90
5508;DHT22;2776;51.046;6.772;2023-03-14T08:42:32;11.40;99.90
5508;DHT22;2776;51.046;6.772;2023-03-14T08:44:59;11.50;99.90
5508;DHT22;2776;51.046;6.772;2023-03-14T08:47:27;11.50;99.90
5508;DHT22;2776;51.046;6.772;2023-03-14T08:49:54;11.40;99.90
5508;DHT22;2776;51.046;6.772;2023-03-14T08:52:20;11.40;99.90
5508;DHT22;2776;51.046;6.772;2023-03-14T08:54:47;11.30;99.90
5508;DHT22;2776;51.046;6.772;2023-03-14T08:57:14;11.20;99.90
5508;DHT22;2776;51.046;6.772;2023-03-14T08:59:41;11.20;99.90
5508;DHT22;2776;51.046;6.772;2023-03-14T09:02:09;11.20;99.90
5508;DHT22;2776;51.046;6.772;2023-03-14T09:04:38;11.10;99.90
5508;DHT22;2776;51.046;6.772;2023-03-14T09:07:05;11.10;99.90
5508;DHT22;2776;51.046;6.772;2023-03-14T09:09:32;11.00;99.90
5508;DHT22;2776;51.046;6.772;2023-03-14T09:11:59;11.10;99.90
5508;DHT22;2776;51.046;6.772;2023-03-14T09:14:25;11.00;99.90
5508;DHT22;2776;51.046;6.772;2023-03-14T09:16:53;11.00;99.90
5508;DHT22;2776;51.046;6.772;2023-03-14T09:19:20;11.10;99.90
5508;DHT22;2776;51.046;6.772;2023-03-14T09:21:48;11.10;99.90
5508;DHT22;2776;51.046;6.772;2023-03-14T09:24:15;11.20;99.90
5508;DHT22;2776;51.046;6.772;2023-03-14T09:26:42;11.00;99.90
5508;DHT22;2776;51.046;6.772;2023-03-14T09:29:09;10.80;99.90
5508;DHT22;2776;51.046;6.772;2023-03-14T09:31:36;10.50;99.90
5508;DHT22;2776;51.046;6.772;2023-03-14T09:34:03;10.20;99.90
5508;DHT22;2776;51.046;6.772;2023-03-14T09:36:30;9.90;99.90
5508;DHT22;2776;51.046;6.772;2023-03-14T09:38:58;9.60;99.90
5508;DHT22;2776;51.046;6.772;2023-03-14T09:41:27;9.50;99.90
5508;DHT22;2776;51.046;6.772;2023-03-14T09:44:01;9.40;99.90
5508;DHT22;2776;51.046;6.772;2023-03-14T09:46:29;9.30;99.90
5508;DHT22;2776;51.046;6.772;2023-03-14T09:48:58;9.40;99.90
5508;DHT22;2776;51.046;6.772;2023-03-14T09:51:25;9.30;99.90
5508;DHT22;2776;51.046;6.772;2023-03-14T09:53:52;9.30;99.90
5508;DHT22;2776;51.046;6.772;2023-03-14T09:56:23;9.40;99.90
5508;DHT22;2776;51.046;6.772;2023-03-14T09:58:54;9.50;99.90
5508;DHT22;2776;51.046;6.772;2023-03-14T10:01:25;9.50;99.90
5508;DHT22;2776;51.046;6.772;2023-03-14T10:03:54;9.50;99.90
5508;DHT22;2776;51.046;6.772;2023-03-14T10:06:24;9.60;99.90
5508;DHT22;2776;51.046;6.772;2023-03-14T10:08:52;9.50;99.90
5508;DHT22;2776;51.046;6.772;2023-03-14T10:11:22;9.50;99.90
5508;DHT22;2776;51.046;6.772;2023-03-14T10:14:01;9.30;99.90
5508;DHT22;2776;51.046;6.772;2023-03-14T10:16:29;9.30;99.90
5508;DHT22;2776;51.046;6.772;2023-03-14T10:19:02;9.30;99.90
5508;DHT22;2776;51.046;6.772;2023-03-14T10:21:30;9.40;99.90
5508;DHT22;2776;51.046;6.772;2023-03-14T10:24:09;9.30;99.90
5508;DHT22;2776;51.046;6.772;2023-03-14T10:26:38;9.00;99.90
5508;DHT22;2776;51.046;6.772;2023-03-14T10:29:10;9.00;99.90
5508;DHT22;2776;51.046;6.772;2023-03-14T10:31:47;8.70;99.90
5508;DHT22;2776;51.046;6.772;2023-03-14T10:34:17;8.60;99.90
5508;DHT22;2776;51.046;6.772;2023-03-14T10:36:44;8.80;99.90
5508;DHT22;2776;51.046;6.772;2023-03-14T10:39:25;8.80;99.90
5508;DHT22;2776;51.046;6.772;2023-03-14T10:41:55;8.80;99.90
5508;DHT22;2776;51.046;6.772;2023-03-14T10:44:28;8.80;99.90
5508;DHT22;2776;51.046;6.772;2023-03-14T10:46:58;8.90;99.90
5508;DHT22;2776;51.046;6.772;2023-03-14T10:49:28;9.00;99.90
5508;DHT22;2776;51.046;6.772;2023-03-14T10:51:55;9.20;99.90
5508;DHT22;2776;51.046;6.772;2023-03-14T10:54:29;9.30;99.90
5508;DHT22;2776;51.046;6.772;2023-03-14T10:56:59;9.50;99.90
5508;DHT22;2776;51.046;6.772;2023-03-14T10:59:29;9.70;99.90
5508;DHT22;2776;51.046;6.772;2023-03-14T11:02:02;9.70;99.90
5508;DHT22;2776;51.046;6.772;2023-03-14T11:04:46;9.80;99.90
5508;DHT22;2776;51.046;6.772;2023-03-14T11:07:23;9.80;99.90
5508;DHT22;2776;51.046;6.772;2023-03-14T11:09:53;9.70;99.90
5508;DHT22;2776;51.046;6.772;2023-03-14T11:12:33;9.70;99.90
5508;DHT22;2776;51.046;6.772;2023-03-14T11:15:05;9.90;99.90
5508;DHT22;2776;51.046;6.772;2023-03-14T11:17:41;10.30;99.90
5508;DHT22;2776;51.046;6.772;2023-03-14T11:20:26;10.70;99.90
5508;DHT22;2776;51.046;6.772;2023-03-14T11:23:01;10.80;99.90
5508;DHT22;2776;51.046;6.772;2023-03-14T11:25:33;10.10;99.90
5508;DHT22;2776;51.046;6.772;2023-03-14T11:28:09;9.00;99.90
5508;DHT22;2776;51.046;6.772;2023-03-14T11:30:45;8.50;99.90
5508;DHT22;2776;51.046;6.772;2023-03-14T11:33:17;8.10;99.90
5508;DHT22;2776;51.046;6.772;2023-03-14T11:35:55;8.00;99.90
5508;DHT22;2776;51.046;6.772;2023-03-14T11:38:30;7.80;99.90
5508;DHT22;2776;51.046;6.772;2023-03-14T11:40:58;7.80;99.90
5508;DHT22;2776;51.046;6.772;2023-03-14T11:43:29;7.90;99.90
5508;DHT22;2776;51.046;6.772;2023-03-14T11:46:03;7.90;99.90
5508;DHT22;2776;51.046;6.772;2023-03-14T11:48:39;8.00;99.90
5508;DHT22;2776;51.046;6.772;2023-03-14T11:51:13;8.10;99.90
5508;DHT22;2776;51.046;6.772;2023-03-14T11:53:48;8.00;99.90
5508;DHT22;2776;51.046;6.772;2023-03-14T11:56:24;8.10;99.90
5508;DHT22;2776;51.046;6.772;2023-03-14T11:58:57;8.10;99.90
5508;DHT22;2776;51.046;6.772;2023-03-14T12:01:29;8.10;99.90
5508;DHT22;2776;51.046;6.772;2023-03-14T12:04:02;8.00;99.90
5508;DHT22;2776;51.046;6.772;2023-03-14T12:06:36;8.00;99.90
5508;DHT22;2776;51.046;6.772;2023-03-14T12:09:06;7.90;99.90
5508;DHT22;2776;51.046;6.772;2023-03-14T12:11:37;7.90;99.90
5508;DHT22;2776;51.046;6.772;2023-03-14T12:14:17;8.00;99.90
5508;DHT22;2776;51.046;6.772;2023-03-14T12:16:46;8.00;99.90
5508;DHT22;2776;51.046;6.772;2023-03-14T12:19:21;8.00;99.90
5508;DHT22;2776;51.046;6.772;2023-03-14T12:21:52;8.10;99.90
5508;DHT22;2776;51.046;6.772;2023-03-14T12:24:23;8.10;99.90
5508;DHT22;2776;51.046;6.772;2023-03-14T12:26:54;8.20;99.90
5508;DHT22;2776;51.046;6.772;2023-03-14T12:29:23;8.20;99.90
5508;DHT22;2776;51.046;6.772;2023-03-14T12:32:07;8.20;99.90
5508;DHT22;2776;51.046;6.772;2023-03-14T12:34:34;8.20;99.90
5508;DHT22;2776;51.046;6.772;2023-03-14T12:37:14;8.10;99.90
5508;DHT22;2776;51.046;6.772;2023-03-14T12:39:58;8.00;99.90
5508;DHT22;2776;51.046;6.772;2023-03-14T12:42:38;8.00;99.90
5508;DHT22;2776;51.046;6.772;2023-03-14T12:45:22;7.90;99.90
5508;DHT22;2776;51.046;6.772;2023-03-14T12:47:53;7.90;99.90
5508;DHT22;2776;51.046;6.772;2023-03-14T12:50:36;7.80;99.90
5508;DHT22;2776;51.046;6.772;2023-03-14T12:53:37;7.70;99.90
5508;DHT22;2776;51.046;6.772;2023-03-14T12:56:15;7.70;99.90
5508;DHT22;2776;51.046;6.772;2023-03-14T12:58:59;7.70;99.90
5508;DHT22;2776;51.046;6.772;2023-03-14T13:01:29;7.80;99.90
5508;DHT22;2776;51.046;6.772;2023-03-14T13:03:57;8.10;99.90
5508;DHT22;2776;51.046;6.772;2023-03-14T13:06:50;8.30;99.90
5508;DHT22;2776;51.046;6.772;2023-03-14T13:09:49;8.40;99.90
5508;DHT22;2776;51.046;6.772;2023-03-14T13:12:23;8.60;99.90
5508;DHT22;2776;51.046;6.772;2023-03-14T13:14:53;8.50;99.90
5508;DHT22;2776;51.046;6.772;2023-03-14T13:17:27;8.60;99.90
5508;DHT22;2776;51.046;6.772;2023-03-14T13:19:57;8.70;99.90
5508;DHT22;2776;51.046;6.772;2023-03-14T13:22:28;8.40;99.90
5508;DHT22;2776;51.046;6.772;2023-03-14T13:25:00;8.00;99.90
5508;DHT22;2776;51.046;6.772;2023-03-14T13:27:30;7.60;99.90
5508;DHT22;2776;51.046;6.772;2023-03-14T13:29:57;7.30;99.90
5508;DHT22;2776;51.046;6.772;2023-03-14T13:32:28;7.30;99.90
5508;DHT22;2776;51.046;6.772;2023-03-14T13:34:56;7.20;99.90
5508;DHT22;2776;51.046;6.772;2023-03-14T13:37:25;7.30;99.90
5508;DHT22;2776;51.046;6.772;2023-03-14T13:39:53;7.30;99.90
5508;DHT22;2776;51.046;6.772;2023-03-14T13:42:21;7.40;99.90
5508;DHT22;2776;51.046;6.772;2023-03-14T13:44:51;7.50;99.90
5508;DHT22;2776;51.046;6.772;2023-03-14T13:47:21;7.50;99.90
5508;DHT22;2776;51.046;6.772;2023-03-14T13:49:50;7.60;99.90
5508;DHT22;2776;51.046;6.772;2023-03-14T13:52:23;7.70;99.90
5508;DHT22;2776;51.046;6.772;2023-03-14T13:54:53;7.70;99.90
5508;DHT22;2776;51.046;6.772;2023-03-14T13:57:20;7.70;99.90
5508;DHT22;2776;51.046;6.772;2023-03-14T13:59:59;7.80;99.90
5508;DHT22;2776;51.046;6.772;2023-03-14T14:02:27;7.90;99.90
5508;DHT22;2776;51.046;6.772;2023-03-14T14:04:56;8.00;99.90
5508;DHT22;2776;51.046;6.772;2023-03-14T14:07:23;8.00;99.90
5508;DHT22;2776;51.046;6.772;2023-03-14T14:09:52;8.10;99.90
5508;DHT22;2776;51.046;6.772;2023-03-14T14:12:22;8.00;99.90
5508;DHT22;2776;51.046;6.772;2023-03-14T14:14:53;8.10;99.90
5508;DHT22;2776;51.046;6.772;2023-03-14T14:17:24;8.00;99.90
5508;DHT22;2776;51.046;6.772;2023-03-14T14:19:52;8.10;99.90
5508;DHT22;2776;51.046;6.772;2023-03-14T14:22:23;8.20;99.90
5508;DHT22;2776;51.046;6.772;2023-03-14T14:24:50;8.40;99.90
5508;DHT22;2776;51.046;6.772;2023-03-14T14:27:19;8.40;99.90
5508;DHT22;2776;51.046;6.772;2023-03-14T14:29:59;8.40;99.90
5508;DHT22;2776;51.046;6.772;2023-03-14T14:32:27;8.40;99.90
5508;DHT22;2776;51.046;6.772;2023-03-14T14:35:00;8.50;99.90
5508;DHT22;2776;51.046;6.772;2023-03-14T14:37:32;8.50;99.90
5508;DHT22;2776;51.046;6.772;2023-03-14T14:40:00;8.60;99.90
5508;DHT22;2776;51.046;6.772;2023-03-14T14:42:33;8.60;99.90
5508;DHT22;2776;51.046;6.772;2023-03-14T14:44:59;8.70;99.90
5508;DHT22;2776;51.046;6.772;2023-03-14T14:47:28;8.80;99.90
5508;DHT22;2776;51.046;6.772;2023-03-14T14:49:59;8.80;99.90
5508;DHT22;2776;51.046;6.772;2023-03-14T14:52:36;8.80;99.90
5508;DHT22;2776;51.046;6.772;2023-03-14T14:55:12;8.60;99.90
5508;DHT22;2776;51.046;6.772;2023-03-14T14:57:41;8.70;99.90
5508;DHT22;2776;51.046;6.772;2023-03-14T15:00:19;8.70;99.90
5508;DHT22;2776;51.046;6.772;2023-03-14T15:02:48;8.70;99.90
5508;DHT22;2776;51.046;6.772;2023-03-14T15:05:17;8.90;99.90
5508;DHT22;2776;51.046;6.772;2023-03-14T15:07:46;8.80;99.90
5508;DHT22;2776;51.046;6.772;2023-03-14T15:10:15;8.70;99.90
5508;DHT22;2776;51.046;6.772;2023-03-14T15:12:42;8.80;99.90
5508;DHT22;2776;51.046;6.772;2023-03-14T15:15:10;8.80;99.90
5508;DHT22;2776;51.046;6.772;2023-03-14T15:17:37;8.80;99.90
5508;DHT22;2776;51.046;6.772;2023-03-14T15:20:06;8.80;99.90
5508;DHT22;2776;51.046;6.772;2023-03-14T15:22:36;8.80;99.90
5508;DHT22;2776;51.046;6.772;2023-03-14T15:25:04;8.80;99.90
5508;DHT22;2776;51.046;6.772;2023-03-14T15:27:32;8.90;99.90
5508;DHT22;2776;51.046;6.772;2023-03-14T15:29:59;8.80;99.90
5508;DHT22;2776;51.046;6.772;2023-03-14T15:32:26;8.80;99.90
5508;DHT22;2776;51.046;6.772;2023-03-14T15:34:54;8.80;99.90
5508;DHT22;2776;51.046;6.772;2023-03-14T15:37:21;8.70;99.90
5508;DHT22;2776;51.046;6.772;2023-03-14T15:39:49;8.70;99.90
5508;DHT22;2776;51.046;6.772;2023-03-14T15:42:17;8.60;99.90
5508;DHT22;2776;51.046;6.772;2023-03-14T15:44:44;8.50;99.90
5508;DHT22;2776;51.046;6.772;2023-03-14T15:47:11;8.50;99.90
5508;DHT22;2776;51.046;6.772;2023-03-14T15:49:38;8.40;99.90
5508;DHT22;2776;51.046;6.772;2023-03-14T15:52:04;8.40;99.90
5508;DHT22;2776;51.046;6.772;2023-03-14T15:54:33;8.40;99.90
5508;DHT22;2776;51.046;6.772;2023-03-14T15:57:00;8.40;99.90
5508;DHT22;2776;51.046;6.772;2023-03-14T15:59:28;8.40;99.90
5508;DHT22;2776;51.046;6.772;2023-03-14T16:01:55;8.40;99.90
5508;DHT22;2776;51.046;6.772;2023-03-14T16:04:21;8.30;99.90
5508;DHT22;2776;51.046;6.772;2023-03-14T16:06:48;8.30;99.90
5508;DHT22;2776;51.046;6.772;2023-03-14T16:09:15;8.20;99.90
5508;DHT22;2776;51.046;6.772;2023-03-14T16:11:41;8.20;99.90
5508;DHT22;2776;51.046;6.772;2023-03-14T16:14:09;8.20;99.90
5508;DHT22;2776;51.046;6.772;2023-03-14T16:16:37;8.10;99.90
5508;DHT22;2776;51.046;6.772;2023-03-14T16:19:06;8.10;99.90
5508;DHT22;2776;51.046;6.772;2023-03-14T16:21:33;8.10;99.90